地図

経路データ

SID SEASON NUMBER BASIN SUBBASIN NAME ISO_TIME NATURE LAT LON WMO_WIND WMO_PRES WMO_AGENCY TRACK_TYPE DIST2LAND LANDFALL IFLAG USA_AGENCY USA_ATCF_ID USA_LAT USA_LON USA_RECORD USA_STATUS USA_WIND USA_PRES USA_SSHS USA_R34_NE USA_R34_SE USA_R34_SW USA_R34_NW USA_R50_NE USA_R50_SE USA_R50_SW USA_R50_NW USA_R64_NE USA_R64_SE USA_R64_SW USA_R64_NW USA_POCI USA_ROCI USA_RMW USA_EYE TOKYO_LAT TOKYO_LON TOKYO_GRADE TOKYO_WIND TOKYO_PRES TOKYO_R50_DIR TOKYO_R50_LONG TOKYO_R50_SHORT TOKYO_R30_DIR TOKYO_R30_LONG TOKYO_R30_SHORT TOKYO_LAND CMA_LAT CMA_LON CMA_CAT CMA_WIND CMA_PRES HKO_LAT HKO_LON HKO_CAT HKO_WIND HKO_PRES NEWDELHI_LAT NEWDELHI_LON NEWDELHI_GRADE NEWDELHI_WIND NEWDELHI_PRES NEWDELHI_CI NEWDELHI_DP NEWDELHI_POCI REUNION_LAT REUNION_LON REUNION_TYPE REUNION_WIND REUNION_PRES REUNION_TNUM REUNION_CI REUNION_RMW REUNION_R34_NE REUNION_R34_SE REUNION_R34_SW REUNION_R34_NW REUNION_R50_NE REUNION_R50_SE REUNION_R50_SW REUNION_R50_NW REUNION_R64_NE REUNION_R64_SE REUNION_R64_SW REUNION_R64_NW BOM_LAT BOM_LON BOM_TYPE BOM_WIND BOM_PRES BOM_TNUM BOM_CI BOM_RMW BOM_R34_NE BOM_R34_SE BOM_R34_SW BOM_R34_NW BOM_R50_NE BOM_R50_SE BOM_R50_SW BOM_R50_NW BOM_R64_NE BOM_R64_SE BOM_R64_SW BOM_R64_NW BOM_ROCI BOM_POCI BOM_EYE BOM_POS_METHOD BOM_PRES_METHOD NADI_LAT NADI_LON NADI_CAT NADI_WIND NADI_PRES WELLINGTON_LAT WELLINGTON_LON WELLINGTON_WIND WELLINGTON_PRES DS824_LAT DS824_LON DS824_STAGE DS824_WIND DS824_PRES TD9636_LAT TD9636_LON TD9636_STAGE TD9636_WIND TD9636_PRES TD9635_LAT TD9635_LON TD9635_WIND TD9635_PRES TD9635_ROCI NEUMANN_LAT NEUMANN_LON NEUMANN_CLASS NEUMANN_WIND NEUMANN_PRES MLC_LAT MLC_LON MLC_CLASS MLC_WIND MLC_PRES USA_GUST BOM_GUST BOM_GUST_PER REUNION_GUST REUNION_GUST_PER USA_SEAHGT USA_SEARAD_NE USA_SEARAD_SE USA_SEARAD_SW USA_SEARAD_NW STORM_SPEED STORM_DIR
1967022S12165 1967 9 SP MM AGNES:DINAH 1967-01-22 08:00:00 NR -12.0000 165.000 main 323 313 __________O___ -1 -12.0000 165.000 1 5 7 246
1967022S12165 1967 9 SP MM AGNES:DINAH 1967-01-22 09:00:00 NR -12.0457 164.894 main 313 295 __________P___ -1 -12.0457 164.894 1 6 7 245
1967022S12165 1967 9 SP MM AGNES:DINAH 1967-01-22 12:00:00 TS -12.1886 164.586 main 295 275 O________OP___ jtwc_sh SH161967 -12.2000 164.600 15 -1 -12.2000 164.600 TC 15 -12.1809 164.577 1 9 7 247
1967022S12165 1967 9 SP MM AGNES:DINAH 1967-01-22 15:00:00 TS -12.3051 164.280 main 275 257 P________PP___ SH161967 -12.3001 164.290 17 -1 -12.3001 164.290 TC 17 -12.3100 164.270 1 13 6 249
1967022S12165 1967 9 SP MM AGNES:DINAH 1967-01-22 18:00:00 TS -12.4115 163.992 main 257 250 O________OP___ jtwc_sh SH161967 -12.4000 164.000 20 -1 -12.4000 164.000 TC 20 -12.4287 163.980 1 17 6 249
1967022S12165 1967 9 SP MM AGNES:DINAH 1967-01-22 20:00:00 TS -12.4777 163.817 main 250 243 P________PO___ SH161967 -12.4666 163.825 20 -1 -12.4666 163.825 TC 20 -12.5000 163.800 1 20 5 248
1967022S12165 1967 9 SP MM AGNES:DINAH 1967-01-22 21:00:00 TS -12.5109 163.733 main 243 243 P________PP___ SH161967 -12.5000 163.742 20 -1 -12.5000 163.742 TC 20 -12.5329 163.715 1 19 5 244
1967022S12165 1967 9 SP MM AGNES:DINAH 1967-01-22 23:00:00 TS -12.5855 163.589 1001 bom main 246 246 P_____O__PP___ SH161967 -12.5666 163.581 20 -1 -12.7000 163.800 1001 -12.5666 163.581 TC 20 -12.5947 163.552 1 18 4 235
1967022S12165 1967 9 SP MM AGNES:DINAH 1967-01-23 00:00:00 TS -12.6345 163.556 main 246 239 O_____P__OP_O_ jtwc_sh SH161967 -12.6000 163.500 20 -1 -12.7270 163.657 1000 -12.6000 163.500 TC 20 -12.6246 163.472 1 18 -12.7000 164.000 TC 25 1001 5 242
1967022S12165 1967 9 SP MM AGNES:DINAH 1967-01-23 03:00:00 TS -12.7403 163.287 main 239 236 P_____P__PP_P_ SH161967 -12.6925 163.257 17 -1 -12.8104 163.231 1000 -12.6925 163.257 TC 17 -12.7157 163.235 1 17 -12.8026 163.605 TC 27 1000 6 249
1967022S12165 1967 9 SP MM AGNES:DINAH 1967-01-23 06:00:00 TS -12.8536 162.972 main 247 241 O_____P__OP_O_ jtwc_sh SH161967 -12.8000 163.000 15 -1 -12.9033 162.821 999 -12.8000 163.000 TC 15 -12.8186 162.984 1 15 -12.9000 163.200 TC 30 1000 7 249
1967022S12165 1967 9 SP MM AGNES:DINAH 1967-01-23 08:00:00 TS -12.9371 162.752 main 241 239 P_____P__PO_P_ SH161967 -12.8866 162.819 15 -1 -12.9742 162.561 999 -12.8866 162.819 TC 15 -12.9000 162.800 1 15 -12.9612 162.922 TC 30 999 7 249
1967022S12165 1967 9 SP MM AGNES:DINAH 1967-01-23 09:00:00 TS -12.9803 162.637 main 248 247 P_____P__PP_P_ SH161967 -12.9349 162.722 15 -1 -13.0133 162.436 999 -12.9349 162.722 TC 15 -12.9483 162.698 1 14 -12.9925 162.785 TC 30 999 7 248
1967022S12165 1967 9 SP MM AGNES:DINAH 1967-01-23 11:00:00 TS -13.0747 162.408 999 bom main 257 257 P_____O__PP_P_ SH161967 -13.0416 162.514 15 -1 -13.1000 162.200 999 -13.0416 162.514 TC 15 -13.0534 162.483 1 13 -13.0610 162.522 TC 30 999 7 247
1967022S12165 1967 9 SP MM AGNES:DINAH 1967-01-23 12:00:00 TS -13.1263 162.293 main 257 257 O_____P__OP_O_ jtwc_sh SH161967 -13.1000 162.400 15 -1 -13.1481 162.089 998 -13.1000 162.400 TC 15 -13.1096 162.370 1 13 -13.1000 162.400 TC 30 999 8 243
1967022S12165 1967 9 SP MM AGNES:DINAH 1967-01-23 15:00:00 TS -13.2988 161.946 main 279 279 P_____P__PP_P_ SH161967 -13.3000 162.008 12 -1 -13.3092 161.779 998 -13.3000 162.008 TC 12 -13.2884 162.018 1 12 -13.2349 162.085 TC 32 998 8 242
1967022S12165 1967 9 SP MM AGNES:DINAH 1967-01-23 18:00:00 TS -13.4830 161.604 main 303 303 O_____P__OP_O_ jtwc_sh SH161967 -13.5000 161.600 10 -1 -13.4880 161.489 998 -13.5000 161.600 TC 10 -13.4754 161.650 1 10 -13.4000 161.800 TC 35 998 7 241
1967022S12165 1967 9 SP MM AGNES:DINAH 1967-01-23 20:00:00 TS -13.6006 161.388 main 316 316 P_____P__PO_P_ SH161967 -13.6024 161.364 10 -1 -13.6125 161.298 998 -13.6024 161.364 TC 10 -13.6000 161.400 1 10 -13.5308 161.605 TC 35 998 7 241
1967022S12165 1967 9 SP MM AGNES:DINAH 1967-01-23 21:00:00 TS -13.6579 161.281 main 329 329 P_____P__PP_P_ SH161967 -13.6499 161.250 10 -1 -13.6752 161.201 998 -13.6499 161.250 TC 10 -13.6558 161.277 1 10 -13.5999 161.507 TC 35 998 7 241
1967022S12165 1967 9 SP MM AGNES:DINAH 1967-01-23 23:00:00 TS -13.7727 161.062 998 bom main 344 344 P_____O__PP_P_ SH161967 -13.7469 161.020 10 -1 -13.8000 161.000 998 -13.7469 161.020 TC 10 -13.7668 161.028 1 10 -13.7364 161.306 TC 35 998 7 242
1967022S12165 1967 9 SP MM AGNES:DINAH 1967-01-24 00:00:00 TS -13.8295 160.949 main 349 349 O_____P__OP_O_ jtwc_sh SH161967 -13.8000 160.900 10 -1 -13.8546 160.891 997 -13.8000 160.900 TC 10 -13.8224 160.902 1 10 -13.8000 161.200 TC 35 998 8 244
1967022S12165 1967 9 SP MM AGNES:DINAH 1967-01-24 03:00:00 TS -14.0012 160.584 main 381 381 P_____P__PP_P_ SH161967 -13.9925 160.500 10 -1 -14.0169 160.554 997 -13.9925 160.500 TC 10 -13.9923 160.523 1 10 -13.9500 160.857 TC 35 997 8 244
1967022S12165 1967 9 SP MM AGNES:DINAH 1967-01-24 06:00:00 TS -14.1806 160.212 main 418 418 O_____P__OP_O_ jtwc_sh SH161967 -14.2000 160.100 10 -1 -14.1843 160.204 996 -14.2000 160.100 TC 10 -14.1719 160.147 1 10 -14.1000 160.500 TC 35 996 8 243
1967022S12165 1967 9 SP EA AGNES:DINAH 1967-01-24 08:00:00 TS -14.3054 159.973 main 437 437 P_____P__PO_P_ SH161967 -14.3333 159.859 10 -1 -14.3033 159.965 995 -14.3333 159.859 TC 10 -14.3000 159.900 1 10 -14.2199 160.272 TC 36 995 8 241
1967022S12165 1967 9 SP EA AGNES:DINAH 1967-01-24 09:00:00 TS -14.3704 159.855 main 452 452 P_____P__PP_P_ SH161967 -14.3999 159.742 10 -1 -14.3661 159.844 995 -14.3999 159.742 TC 10 -14.3682 159.779 1 10 -14.2849 160.157 TC 37 995 8 240
1967022S12165 1967 9 SP EA AGNES:DINAH 1967-01-24 11:00:00 TS -14.5056 159.619 995 bom main 478 478 P_____O__PP_P_ SH161967 -14.5333 159.514 10 -1 -14.5000 159.600 995 -14.5333 159.514 TC 10 -14.5105 159.539 1 10 -14.4250 159.922 TC 39 995 8 239
1967022S12165 1967 9 SP EA AGNES:DINAH 1967-01-24 12:00:00 TS -14.5766 159.499 main 493 493 O_____P__OP_O_ jtwc_sh SH161967 -14.6000 159.400 10 -1 -14.5757 159.475 994 -14.6000 159.400 TC 10 -14.5840 159.420 1 10 -14.5000 159.800 TC 40 995 8 238
1967022S12165 1967 9 SP EA AGNES:DINAH 1967-01-24 15:00:00 TS -14.7993 159.130 main 535 535 P_____P__PP_P_ SH161967 -14.7924 159.050 10 -1 -14.8205 159.092 993 -14.7924 159.050 TC 10 -14.8116 159.069 1 10 -14.7425 159.400 TC 40 994 9 237
1967022S12165 1967 9 SP EA AGNES:DINAH 1967-01-24 18:00:00 TS -15.0361 158.761 main 571 571 O_____P__OP_O_ jtwc_sh SH161967 -15.0000 158.700 10 -1 -15.0795 158.708 992 -15.0000 158.700 TC 10 -15.0446 158.725 1 10 -15.0000 159.000 TC 40 993 9 236
1967022S12165 1967 9 SP EA AGNES:DINAH 1967-01-24 20:00:00 TS -15.2031 158.519 main 608 608 P_____P__PO_P_ SH161967 -15.1642 158.461 11 -1 -15.2522 158.458 992 -15.1642 158.461 TC 11 -15.2000 158.500 1 10 -15.1720 158.753 TC 41 992 9 234
1967022S12165 1967 9 SP EA AGNES:DINAH 1967-01-24 21:00:00 TS -15.2869 158.400 main 624 624 P_____P__PP_P_ SH161967 -15.2500 158.343 12 -1 -15.3369 158.336 991 -15.2500 158.343 TC 12 -15.2749 158.386 1 11 -15.2574 158.635 TC 42 992 8 234
1967022S12165 1967 9 SP EA AGNES:DINAH 1967-01-24 23:00:00 TS -15.4511 158.168 991 bom main 654 654 P_____O__PP_P_ SH161967 -15.4197 158.111 14 -1 -15.5000 158.100 991 -15.4197 158.111 TC 14 -15.4249 158.160 1 13 -15.4223 158.408 TC 44 991 8 234
1967022S12165 1967 9 SP EA AGNES:DINAH 1967-01-25 00:00:00 TS -15.5286 158.056 main 660 660 O_____P__OP_O_ jtwc_sh SH161967 -15.5000 158.000 15 -1 -15.5720 157.989 990 -15.5000 158.000 TC 15 -15.4999 158.048 1 14 -15.5000 158.300 TC 45 991 8 235
1967022S12165 1967 9 SP EA AGNES:DINAH 1967-01-25 03:00:00 TS -15.7366 157.740 main 698 698 P_____P__PP_P_ SH161967 -15.6999 157.692 20 -1 -15.7767 157.670 988 -15.6999 157.692 TC 20 -15.7249 157.719 1 18 -15.7074 157.992 TC 47 989 7 235
1967022S12165 1967 9 SP EA AGNES:DINAH 1967-01-25 06:00:00 TS -15.9384 157.440 main 730 730 O_____P__OP_O_ jtwc_sh SH161967 -15.9000 157.400 25 -1 -15.9716 157.372 986 -15.9000 157.400 TC 25 -15.9499 157.403 1 22 -15.9000 157.700 TC 50 987 7 234
1967022S12165 1967 9 SP EA AGNES:DINAH 1967-01-25 08:00:00 TS -16.0833 157.240 main 759 759 P_____P__PO_P_ SH161967 -16.0642 157.195 25 -1 -16.1007 157.180 985 -16.0642 157.195 TC 25 -16.1000 157.200 1 25 -16.0333 157.500 TC 51 985 7 233
1967022S12165 1967 9 SP EA AGNES:DINAH 1967-01-25 09:00:00 TS -16.1572 157.142 main 774 774 P_____P__PP_P_ SH161967 -16.1500 157.093 25 -1 -16.1661 157.086 985 -16.1500 157.093 TC 25 -16.1749 157.102 1 24 -16.1000 157.400 TC 52 985 7 231
1967022S12165 1967 9 SP EA AGNES:DINAH 1967-01-25 11:00:00 TS -16.3051 156.948 984 bom main 792 792 P_____O__PP_P_ SH161967 -16.3197 156.894 25 -1 -16.3000 156.900 984 -16.3197 156.894 TC 25 -16.3248 156.910 1 22 -16.2333 157.200 TC 54 984 7 231
1967022S12165 1967 9 SP EA AGNES:DINAH 1967-01-25 12:00:00 TS -16.3784 156.853 main 802 802 O_____P__OP_O_ jtwc_sh SH161967 -16.4000 156.800 25 -1 -16.3704 156.804 983 -16.4000 156.800 TC 25 -16.3998 156.817 1 21 -16.3000 157.100 TC 55 984 7 232
1967022S12165 1967 9 SP EA AGNES:DINAH 1967-01-25 15:00:00 TS -16.5874 156.578 main 836 836 P_____P__PP_P_ SH161967 -16.5999 156.550 20 -1 -16.5865 156.520 981 -16.5999 156.550 TC 20 -16.6247 156.545 1 19 -16.4925 156.792 TC 57 982 7 231
1967022S12165 1967 9 SP EA AGNES:DINAH 1967-01-25 18:00:00 TS -16.8019 156.307 main 857 835 O_____P__OP_O_ jtwc_sh SH161967 -16.8000 156.300 15 -1 -16.8103 156.244 979 -16.8000 156.300 TC 15 -16.8499 156.278 1 16 -16.7000 156.500 TC 60 980 7 230
1967022S12165 1967 9 SP EA AGNES:DINAH 1967-01-25 20:00:00 TS -16.9600 156.122 main 827 819 P_____P__PO_P_ SH161967 -16.9642 156.103 16 -1 -16.9636 156.064 978 -16.9642 156.103 TC 16 -17.0000 156.100 1 15 -16.8587 156.325 TC 61 978 7 228
1967022S12165 1967 9 SP EA AGNES:DINAH 1967-01-25 21:00:00 TS -17.0413 156.028 main 819 796 P_____P__PP_P_ SH161967 -17.0500 156.000 17 -1 -17.0416 155.975 977 -17.0500 156.000 TC 17 -17.0750 156.005 1 16 -16.9424 156.242 TC 62 978 7 228
1967022S12165 1967 9 SP EA AGNES:DINAH 1967-01-25 23:00:00 TS -17.2047 155.842 976 bom main 789 780 P_____O__PP_P_ SH161967 -17.2198 155.797 19 -1 -17.2000 155.800 976 -17.2198 155.797 TC 19 -17.2250 155.813 1 18 -17.1140 156.081 TC 64 976 7 227
1967022S12165 1967 9 SP EA AGNES:DINAH 1967-01-26 00:00:00 TS -17.2854 155.750 main 780 742 O_____P__OP_O_ jtwc_sh SH161967 -17.3000 155.700 20 -1 -17.2812 155.711 975 -17.3000 155.700 TC 20 -17.3000 155.717 1 19 -17.2000 156.000 TC 65 976 7 228
1967022S12165 1967 9 SP EA AGNES:DINAH 1967-01-26 03:00:00 TS -17.5135 155.489 main 742 712 P_____P__PP_P_ SH161967 -17.4999 155.442 25 -1 -17.5308 155.448 974 -17.4999 155.442 TC 25 -17.5250 155.434 1 23 -17.4500 155.750 TC 67 975 7 227
1967022S12165 1967 9 SP EA AGNES:DINAH 1967-01-26 06:00:00 TS -17.7425 155.237 main 705 681 O_____P__OP_O_ jtwc_sh SH161967 -17.7000 155.200 30 -1 -17.7846 155.194 973 -17.7000 155.200 TC 30 -17.7500 155.166 1 27 -17.7000 155.500 TC 70 974 7 225
1967022S12165 1967 9 SP EA AGNES:DINAH 1967-01-26 08:00:00 TS -17.9059 155.070 main 681 665 P_____P__PO_P_ SH161967 -17.8642 155.028 30 -1 -17.9531 155.032 973 -17.8642 155.028 TC 30 -17.9000 155.000 1 30 -17.8721 155.328 TC 70 973 7 224
1967022S12165 1967 9 SP EA AGNES:DINAH 1967-01-26 09:00:00 TS -17.9883 154.988 main 665 643 P_____P__PP_P_ SH161967 -17.9500 154.943 30 -1 -18.0364 154.953 972 -17.9500 154.943 TC 30 -17.9737 154.922 1 30 -17.9575 155.242 TC 70 973 7 223
1967022S12165 1967 9 SP EA AGNES:DINAH 1967-01-26 11:00:00 TS -18.1507 154.830 972 bom main 635 635 P_____O__PP_P_ SH161967 -18.1198 154.778 30 -1 -18.2000 154.800 972 -18.1198 154.778 TC 30 -18.1208 154.774 1 31 -18.1224 155.078 TC 70 972 7 223
1967022S12165 1967 9 SP EA AGNES:DINAH 1967-01-26 12:00:00 TS -18.2288 154.755 main 635 604 O_____P__OP_O_ jtwc_sh SH161967 -18.2000 154.700 30 -1 -18.2783 154.725 971 -18.2000 154.700 TC 30 -18.1944 154.704 1 31 -18.2000 155.000 TC 70 972 6 223
1967022S12165 1967 9 SP EA AGNES:DINAH 1967-01-26 15:00:00 TS -18.4419 154.543 main 597 573 P_____P__PP_P_ SH161967 -18.4000 154.485 32 -1 -18.5078 154.512 970 -18.4000 154.485 TC 32 -18.4168 154.505 1 32 -18.4000 154.792 TC 72 971 6 222
1967022S12165 1967 9 SP EA AGNES:DINAH 1967-01-26 18:00:00 TS -18.6547 154.350 main 565 542 O_____P__OP_O_ jtwc_sh SH161967 -18.6000 154.300 35 0 -18.7315 154.312 969 -18.6000 154.300 TC 35 -18.6442 154.320 1 34 -18.6000 154.600 TC 75 970 6 219
1967022S12165 1967 9 SP EA AGNES:DINAH 1967-01-26 20:00:00 TS -18.8104 154.231 main 542 534 P_____P__PO_P_ SH161967 -18.7587 154.197 36 0 -18.8790 154.184 969 -18.7587 154.197 TC 36 -18.8000 154.200 2 35 -18.7642 154.467 TC 75 969 6 216
1967022S12165 1967 9 SP EA AGNES:DINAH 1967-01-26 21:00:00 TS -18.8904 154.173 main 534 519 P_____P__PP_P_ SH161967 -18.8424 154.150 37 0 -18.9526 154.122 968 -18.8424 154.150 TC 37 -18.8787 154.136 2 35 -18.8500 154.400 TC 75 969 6 214
1967022S12165 1967 9 SP EA AGNES:DINAH 1967-01-26 23:00:00 TS -19.0520 154.057 968 bom main 510 503 P_____O__PP_P_ SH161967 -19.0140 154.053 39 0 -19.1000 154.000 968 -19.0140 154.053 TC 39 -19.0387 154.010 2 37 -19.0197 154.267 TC 75 968 6 215
1967022S12165 1967 9 SP EA AGNES:DINAH 1967-01-27 00:00:00 TS -19.1319 153.997 main 503 473 O_____P__OP_O_ jtwc_sh SH161967 -19.1000 154.000 40 0 -19.1713 153.933 967 -19.1000 154.000 TC 40 -19.1200 153.948 2 38 -19.1000 154.200 TC 75 968 6 218
1967022S12165 1967 9 SP EA AGNES:DINAH 1967-01-27 03:00:00 TS -19.3584 153.804 main 464 434 P_____P__PP_P_ SH161967 -19.3425 153.800 42 0 -19.3837 153.737 966 -19.3425 153.800 TC 42 -19.3687 153.769 2 40 -19.3000 153.992 TC 77 966 6 218
1967022S12165 1967 9 SP EA AGNES:DINAH 1967-01-27 06:00:00 TS -19.5923 153.620 main 434 418 O_____P__OP_O_ jtwc_sh SH161967 -19.6000 153.600 45 0 -19.6011 153.553 964 -19.6000 153.600 TC 45 -19.6250 153.603 2 43 -19.5000 153.800 TC 80 965 6 214
1967022S12165 1967 9 SP EA AGNES:DINAH 1967-01-27 08:00:00 TS -19.7630 153.511 main 410 410 P_____P__PO_P_ SH161967 -19.7975 153.487 45 0 -19.7535 153.442 963 -19.7975 153.487 TC 45 -19.8000 153.500 2 45 -19.6533 153.687 TC 81 963 6 210
1967022S12165 1967 9 SP EA AGNES:DINAH 1967-01-27 09:00:00 TS -19.8520 153.461 main 403 387 P_____P__PP_P_ SH161967 -19.9000 153.435 45 0 -19.8329 153.391 963 -19.9000 153.435 TC 45 -19.8908 153.448 2 45 -19.7350 153.635 TC 82 963 6 207
1967022S12165 1967 9 SP EA AGNES:DINAH 1967-01-27 11:00:00 TS -20.0342 153.368 962 bom main 387 372 P_____O__PP_P_ SH161967 -20.1031 153.342 45 0 -20.0000 153.300 962 -20.1031 153.342 TC 45 -20.0759 153.348 2 46 -19.9083 153.542 TC 84 962 6 204
1967022S12165 1967 9 SP EA AGNES:DINAH 1967-01-27 12:00:00 TS -20.1272 153.327 main 372 341 O_____P__OP_O_ jtwc_sh SH161967 -20.2000 153.300 45 0 -20.0936 153.262 961 -20.2000 153.300 TC 45 -20.1696 153.301 2 46 -20.0000 153.500 TC 85 962 6 201
1967022S12165 1967 9 SP EA AGNES:DINAH 1967-01-27 15:00:00 TS -20.4069 153.219 main 341 311 P_____P__PP_P_ SH161967 -20.4575 153.192 47 0 -20.3925 153.168 959 -20.4575 153.192 TC 47 -20.4510 153.171 2 47 -20.2925 153.385 TC 87 960 6 198
1967022S12165 1967 9 SP EA AGNES:DINAH 1967-01-27 18:00:00 TS -20.6882 153.131 main 311 297 O_____P__OP_O_ jtwc_sh SH161967 -20.7000 153.100 50 0 -20.7039 153.098 957 -20.7000 153.100 TC 50 -20.7255 153.061 2 49 -20.6000 153.300 TC 90 958 6 195
1967022S12165 1967 9 SP EA AGNES:DINAH 1967-01-27 20:00:00 TS -20.8786 153.077 main 297 290 P_____P__PO_P_ SH161967 -20.8721 153.028 51 0 -20.9093 153.059 956 -20.8721 153.028 TC 51 -20.9000 153.000 2 50 -20.8108 153.264 TC 91 956 6 195
1967022S12165 1967 9 SP EA AGNES:DINAH 1967-01-27 21:00:00 TS -20.9711 153.051 main 290 275 P_____P__PP_P_ SH161967 -20.9575 152.993 52 0 -21.0092 153.039 955 -20.9575 152.993 TC 52 -20.9780 152.971 2 51 -20.9150 153.250 TC 92 956 6 193
1967022S12165 1967 9 SP EA AGNES:DINAH 1967-01-27 23:00:00 TS -21.1483 153.003 954 bom main 275 269 P_____O__PP_P_ SH161967 -21.1224 152.928 54 0 -21.2000 153.000 954 -21.1224 152.928 TC 54 -21.1271 152.920 2 53 -21.1114 153.220 TC 94 954 5 195
1967022S12165 1967 9 SP EA AGNES:DINAH 1967-01-28 00:00:00 TS -21.2301 152.978 main 269 249 O_____P__OP_O_ jtwc_sh SH161967 -21.2000 152.900 55 0 -21.2814 152.970 953 -21.2000 152.900 TC 55 -21.1995 152.899 2 54 -21.2000 153.200 TC 95 954 5 198
1967022S12165 1967 9 SP EA AGNES:DINAH 1967-01-28 03:00:00 TS -21.4427 152.900 main 249 229 P_____P__PP_P_ SH161967 -21.4000 152.835 57 0 -21.5074 152.878 951 -21.4000 152.835 TC 57 -21.4143 152.847 2 58 -21.4075 153.100 TC 97 952 4 197
1967022S12165 1967 9 SP EA AGNES:DINAH 1967-01-28 06:00:00 TS -21.6492 152.837 main 229 220 O_____P__OP_O_ jtwc_sh SH161967 -21.6000 152.800 60 0 -21.7210 152.793 949 -21.6000 152.800 TC 60 -21.6381 152.814 2 62 -21.6000 153.000 TC 100 950 4 194
1967022S12165 1967 9 SP EA AGNES:DINAH 1967-01-28 08:00:00 TS -21.8006 152.808 main 220 216 P_____P__PO_P_ SH161967 -21.7533 152.792 63 0 -21.8656 152.746 948 -21.7533 152.792 TC 63 -21.8000 152.800 3 65 -21.7533 152.953 TC 101 948 5 189
1967022S12165 1967 9 SP EA AGNES:DINAH 1967-01-28 09:00:00 TS -21.8801 152.796 main 216 213 P_____P__PP_P_ SH161967 -21.8350 152.792 65 1 -21.9407 152.727 947 -21.8350 152.792 TC 65 -21.8826 152.788 3 66 -21.8350 152.935 TC 102 948 5 0
1967022S12165 1967 9 SP EA AGNES:DINAH 1967-01-28 11:00:00 TS -22.0486 152.780 946 bom main 213 210 P_____O__PP_P_ SH161967 -22.0083 152.797 68 1 -22.1000 152.700 946 -22.0083 152.797 TC 68 -22.0541 152.770 3 70 -22.0083 152.908 TC 104 946 5 0
1967022S12165 1967 9 SP EA AGNES:DINAH 1967-01-28 12:00:00 TS -22.1367 152.775 main 210 205 O_____P__OP_O_ jtwc_sh SH161967 -22.1000 152.800 70 1 -22.1767 152.688 945 -22.1000 152.800 TC 70 -22.1437 152.763 3 71 -22.1000 152.900 TC 105 946 6 182
1967022S12165 1967 9 SP EA AGNES:DINAH 1967-01-28 15:00:00 TS -22.4130 152.761 main 205 186 P_____P__PP_P_ SH161967 -22.3700 152.793 75 1 -22.4177 152.670 945 -22.3700 152.793 TC 75 -22.4323 152.755 3 76 -22.3925 152.885 TC 105 945 6 181
1967022S12165 1967 9 SP EA AGNES:DINAH 1967-01-28 18:00:00 TS -22.7301 152.772 main 186 168 O_____P__OP_O_ jtwc_sh SH161967 -22.7000 152.800 80 1 -22.6942 152.686 945 -22.7000 152.800 TC 80 -22.7579 152.772 3 81 -22.7000 152.900 TC 105 945 7 176
1967022S12165 1967 9 SP EA AGNES:DINAH 1967-01-28 20:00:00 TS -22.9685 152.794 main 159 151 P_____P__PO_P_ SH161967 -22.9763 152.820 81 1 -22.9102 152.717 945 -22.9763 152.820 TC 81 -23.0000 152.800 4 85 -22.8783 152.915 TC 105 945 7 174
1967022S12165 1967 9 SP EA AGNES:DINAH 1967-01-28 21:00:00 TS -23.0968 152.809 main 151 135 P_____P__PP_P_ SH161967 -23.1275 152.835 82 1 -23.0305 152.740 945 -23.1275 152.835 TC 82 -23.1286 152.807 4 84 -22.9700 152.928 TC 105 945 8 173
1967022S12165 1967 9 SP EA AGNES:DINAH 1967-01-28 23:00:00 TS -23.3709 152.851 945 bom main 135 128 P_____O__PP_P_ SH161967 -23.4421 152.875 84 2 -23.3000 152.800 945 -23.4421 152.875 TC 84 -23.4025 152.827 4 83 -23.1771 152.969 TC 105 945 9 171
1967022S12165 1967 9 SP EA AGNES:DINAH 1967-01-29 00:00:00 TS -23.5176 152.878 main 128 89 O_____P__OP_O_ jtwc_sh SH161967 -23.6000 152.900 85 2 -23.4598 152.832 945 -23.6000 152.900 TC 85 -23.5468 152.843 4 83 -23.3000 153.000 TC 105 945 9 169
1967022S12165 1967 9 SP EA AGNES:DINAH 1967-01-29 03:00:00 TS -23.9825 152.981 main 89 44 P_____P__PP_P_ SH161967 -24.0500 152.978 82 1 -23.9893 152.961 945 -24.0500 152.978 TC 82 -24.0018 152.921 4 82 -23.7700 153.128 TC 105 945 10 166
1967022S12165 1967 9 SP EA AGNES:DINAH 1967-01-29 06:00:00 TS -24.4682 153.132 main 33 22 O_____P__OP_O_ jtwc_sh SH161967 -24.5000 153.100 80 1 -24.5308 153.133 945 -24.5000 153.100 TC 80 -24.4782 153.061 4 80 -24.3000 153.300 TC 105 945 10 164
1967022S12165 1967 9 SP EA AGNES:DINAH 1967-01-29 07:00:00 TS -24.6277 153.187 945 bom main 22 0 P_____O__PP_P_ SH161967 -24.6473 153.142 80 1 -24.7000 153.200 945 4 -24.6473 153.142 TC 80 -24.6390 153.125 4 80 -24.4692 153.351 TC 105 945 10 162
1967022S12165 1967 9 SP EA AGNES:DINAH 1967-01-29 08:00:00 TS -24.7855 153.247 main 0 0 P_____P__PO_P_ SH161967 -24.7944 153.191 81 1 -24.8548 153.262 945 -24.7944 153.191 TC 81 -24.8000 153.200 4 80 -24.6386 153.404 TC 105 945 10 160
1967022S12165 1967 9 SP EA AGNES:DINAH 1967-01-29 09:00:00 TS -24.9414 153.313 main 0 0 P_____P__PP_P_ SH161967 -24.9423 153.248 82 1 -25.0051 153.330 945 -24.9423 153.248 TC 82 -24.9512 153.276 4 80 -24.8073 153.463 TC 105 945 10 156
1967022S12165 1967 9 SP EA AGNES:DINAH 1967-01-29 11:00:00 TS -25.2531 153.476 946 bom main 22 22 P_____O__PP_P_ SH161967 -25.2442 153.400 84 2 -25.3000 153.500 946 -25.2442 153.400 TC 84 -25.2552 153.456 4 82 -25.1389 153.608 TC 105 945 11 153
1967022S12165 1967 9 SP EA AGNES:DINAH 1967-01-29 12:00:00 TS -25.4098 153.578 main 37 37 O_____P__OP_O_ jtwc_sh SH161967 -25.4000 153.500 85 2 -25.4500 153.609 946 -25.4000 153.500 TC 85 -25.4086 153.560 4 83 -25.3000 153.700 TC 105 946 12 145
1967022S12165 1967 9 SP EA AGNES:DINAH 1967-01-29 15:00:00 TS -25.8795 153.962 main 89 89 P_____P__PP_P_ SH161967 -25.8925 153.898 87 2 -25.9001 154.010 948 -25.8925 153.898 TC 87 -25.8769 153.925 4 85 -25.7576 154.070 TC 102 948 12 142
1967022S12165 1967 9 SP EA AGNES:DINAH 1967-01-29 17:00:00 TS -26.1942 154.262 950 bom main 119 119 P_____O__PP_P_ SH161967 -26.2307 154.226 89 2 -26.2000 154.300 950 -26.2307 154.226 TC 89 -26.1986 154.210 4 87 -26.0527 154.356 TC 100 949 12 139
1967022S12165 1967 9 SP EA AGNES:DINAH 1967-01-29 18:00:00 TS -26.3513 154.415 main 129 129 O_____P__OP_O_ jtwc_sh SH161967 -26.4000 154.400 90 2 -26.3446 154.425 950 -26.4000 154.400 TC 90 -26.3629 154.366 4 88 -26.2000 154.500 TC 100 950 12 139
1967022S12165 1967 9 SP EA AGNES:DINAH 1967-01-29 20:00:00 TS -26.6604 154.713 main 155 155 P_____P__PO_P_ SH161967 -26.7277 154.741 86 2 -26.6348 154.677 952 -26.7277 154.741 TC 86 -26.7000 154.700 4 90 -26.4833 154.740 TC 98 951 12 139
1967022S12165 1967 9 SP EA AGNES:DINAH 1967-01-29 21:00:00 TS -26.8170 154.870 main 171 169 P_____P__PP_P_ SH161967 -26.8923 154.921 85 2 -26.7840 154.809 952 -26.8923 154.921 TC 85 -26.8713 154.883 4 87 -26.6270 154.864 TC 97 952 13 137
1967022S12165 1967 9 SP EA AGNES:DINAH 1967-01-29 23:00:00 TS -27.1413 155.209 954 bom main 192 190 P_____O__PP_P_ SH161967 -27.2275 155.300 81 1 -27.1000 155.100 954 -27.2275 155.300 TC 81 -27.2217 155.281 4 82 -26.9326 155.139 TC 95 953 14 137
1967022S12165 1967 9 SP EA AGNES:DINAH 1967-01-30 00:00:00 TS -27.3114 155.395 main 203 203 O_____P__OP_O_ jtwc_sh SH161967 -27.4000 155.500 80 1 -27.2678 155.276 954 -27.4000 155.500 TC 80 -27.4004 155.491 4 80 -27.1000 155.300 TC 95 954 15 135
1967022S12165 1967 9 SP EA AGNES:DINAH 1967-01-30 03:00:00 TS -27.8625 156.028 main 237 237 P_____P__PP_P_ SH161967 -27.9351 156.150 72 1 -27.8111 155.885 956 -27.9351 156.150 TC 72 -27.9495 156.147 4 72 -27.6777 155.912 TC 92 956 16 135
1967022S12165 1967 9 SP EA AGNES:DINAH 1967-01-30 06:00:00 TS -28.4520 156.699 main 302 302 O_____P__OP_O_ jtwc_sh SH161967 -28.5000 156.800 65 1 -28.4074 156.568 958 -28.5000 156.800 TC 65 -28.5150 156.797 4 65 -28.3000 156.600 TC 90 958 17 136
1967022S12165 1967 9 SP EA AGNES:DINAH 1967-01-30 08:00:00 TS -28.8559 157.130 main 340 340 P_____P__PO_P_ SH161967 -28.8918 157.194 59 0 -28.8308 157.033 960 -28.8918 157.194 TC 59 -28.9000 157.200 2 60 -28.7110 157.066 TC 88 959 17 137
1967022S12165 1967 9 SP EA AGNES:DINAH 1967-01-30 09:00:00 TS -29.0608 157.337 main 360 360 P_____P__PP_P_ SH161967 -29.0922 157.380 57 0 -29.0495 157.262 960 -29.0922 157.380 TC 57 -29.0991 157.386 2 57 -28.9152 157.295 TC 87 960 16 140
1967022S12165 1967 9 SP EA AGNES:DINAH 1967-01-30 11:00:00 TS -29.4708 157.725 962 bom main 403 403 P_____O__PP_P_ SH161967 -29.4973 157.734 52 0 -29.5000 157.700 962 -29.4973 157.734 TC 52 -29.5052 157.741 2 53 -29.3115 157.717 TC 85 961 16 141
1967022S12165 1967 9 SP EA AGNES:DINAH 1967-01-30 12:00:00 TS -29.6754 157.904 main 425 425 O_____P__OP_O_ jtwc_sh SH161967 -29.7000 157.900 50 0 -29.7420 157.917 962 -29.7000 157.900 TC 50 -29.7105 157.910 2 51 -29.5000 157.900 TC 85 962 15 144
1967022S12165 1967 9 SP EA AGNES:DINAH 1967-01-30 14:00:00 TS -30.0681 158.224 964 bom main 464 464 P_____O__PP_P_ SH161967 -30.1053 158.238 46 0 -30.2000 158.300 964 -30.1053 158.238 TC 46 -30.1217 158.227 2 47 -29.8650 158.203 TC 83 963 14 146
1967022S12165 1967 9 SP EA AGNES:DINAH 1967-01-30 15:00:00 TS -30.2522 158.360 main 489 489 P_____P__PP_P_ SH161967 -30.3074 158.395 45 0 -30.3785 158.433 964 -30.3074 158.395 TC 45 -30.3260 158.376 2 45 -30.0371 158.326 TC 82 964 12 150
1967022S12165 1967 9 SP EA AGNES:DINAH 1967-01-30 18:00:00 TS -30.7576 158.676 main 527 527 O_____P__OP_O_ jtwc_sh SH161967 -30.9000 158.800 40 0 -30.7528 158.629 966 -30.9000 158.800 TC 40 -30.9231 158.775 2 39 -30.5000 158.600 TC 80 966 11 154
1967022S12165 1967 9 SP EA AGNES:DINAH 1967-01-30 20:00:00 TS -31.0628 158.825 main 541 541 P_____P__PO_P_ SH161967 -31.2852 159.004 38 0 -30.9283 158.659 968 -31.2852 159.004 TC 38 -31.3000 159.000 2 35 -30.7405 158.716 TC 78 967 10 158
1967022S12165 1967 9 SP EA AGNES:DINAH 1967-01-30 21:00:00 TS -31.2095 158.886 main 551 551 P_____P__PP_P_ SH161967 -31.4722 159.088 37 0 -31.0117 158.666 968 -31.4722 159.088 TC 37 -31.4782 159.094 2 35 -30.8497 158.759 TC 77 968 9 161
1967022S12165 1967 9 SP EA AGNES:DINAH 1967-01-30 23:00:00 TS -31.5016 158.999 970 bom main 561 561 P_____O__PP_P_ SH161967 -31.8306 159.233 35 0 -31.2000 158.700 970 -31.8306 159.233 TC 35 -31.8218 159.251 2 36 -31.0739 158.844 TC 75 969 9 161
1967022S12165 1967 9 SP EA AGNES:DINAH 1967-01-31 00:00:00 TS -31.6559 159.066 main 572 572 O_____P__OP_O_ jtwc_sh SH161967 -32.0000 159.300 35 0 -31.3476 158.776 970 -32.0000 159.300 TC 35 -31.9875 159.318 2 36 -31.2000 158.900 TC 75 970 10 158
1967022S12165 1967 9 SP EA AGNES:DINAH 1967-01-31 03:00:00 TS -32.1300 159.296 main 596 596 P_____P__PP_P_ SH161967 -32.4649 159.508 37 0 -31.8406 159.052 972 -32.4649 159.508 TC 37 -32.4636 159.490 2 37 -31.6700 159.170 TC 72 972 10 157
1967022S12165 1967 9 SP EA AGNES:DINAH 1967-01-31 06:00:00 TS -32.6149 159.551 main 635 635 O_____P__OP_O_ jtwc_sh SH161967 -32.9000 159.700 40 0 -32.3821 159.384 974 -32.9000 159.700 TC 40 -32.9127 159.661 2 39 -32.2000 159.500 TC 70 974 11 156
1967022S12165 1967 9 SP EA AGNES:DINAH 1967-01-31 08:00:00 TS -32.9483 159.727 main 652 652 P_____P__PO_P_ SH161967 -33.2052 159.812 40 0 -32.7532 159.625 976 -33.2052 159.812 TC 40 -33.2000 159.800 2 40 -32.5695 159.720 TC 68 975 11 156
1967022S12165 1967 9 SP EA AGNES:DINAH 1967-01-31 09:00:00 TS -33.1264 159.823 main 668 668 P_____P__PP_P_ SH161967 -33.3573 159.871 40 0 -32.9381 159.749 976 -33.3573 159.871 TC 40 -33.3610 159.868 2 37 -32.7574 159.835 TC 67 976 11 155
1967022S12165 1967 9 SP MM AGNES:DINAH 1967-01-31 11:00:00 TS -33.4678 160.017 978 bom main 698 698 P_____O__PP_P_ SH161967 -33.6556 160.011 40 0 -33.3000 160.000 978 -33.6556 160.011 TC 40 -33.6799 160.013 2 33 -33.1254 160.075 TC 65 977 11 154
1967022S12165 1967 9 SP MM AGNES:DINAH 1967-01-31 12:00:00 TS -33.6352 160.123 main 710 710 O_____P__OP_O_ jtwc_sh SH161967 -33.8000 160.100 40 0 -33.4749 160.126 978 -33.8000 160.100 TC 40 -33.8351 160.094 2 31 -33.3000 160.200 TC 65 978 11 149
1967022S12165 1967 9 SP MM AGNES:DINAH 1967-01-31 15:00:00 TS -34.0950 160.472 main 761 761 P_____P__PP_P_ SH161967 -34.2372 160.432 40 0 -33.9754 160.501 980 -34.2372 160.432 TC 40 -34.2680 160.393 2 25 -33.7575 160.600 TC 62 980 11 143
1967022S12165 1967 9 SP MM AGNES:DINAH 1967-01-31 18:00:00 TS -34.4943 160.899 main 810 810 O_____P__OP_O_ jtwc_sh SH161967 -34.6000 160.900 40 0 -34.4478 160.875 982 -34.6000 160.900 TC 40 -34.6238 160.819 2 19 -34.2000 161.000 TC 60 982 11 137
1967022S12165 1967 9 SP MM AGNES:DINAH 1967-01-31 20:00:00 TS -34.7434 161.211 main 843 843 P_____P__PO_P_ SH161967 -34.7913 161.250 38 0 -34.7520 161.124 984 -34.7913 161.250 TC 38 -34.8000 161.200 1 15 -34.5846 161.208 TC 58 983 11 131
1967022S12165 1967 9 SP MM AGNES:DINAH 1967-01-31 21:00:00 TS -34.8519 161.397 main 867 867 P_____P__PP_P_ SH161967 -34.8665 161.452 37 0 -34.9021 161.249 984 -34.8665 161.452 TC 37 -34.8751 161.446 1 -34.7743 161.312 TC 57 984 12 118
1967022S12165 1967 9 SP MM AGNES:DINAH 1967-01-31 23:00:00 TS -35.0171 161.831 986 bom main 905 905 P_____O__PP_P_ SH161967 -34.9717 161.924 35 0 -35.2000 161.500 986 -34.9717 161.924 TC 35 -34.9863 162.008 1 -35.0931 161.551 TC 55 985 12 109
1967022S12165 1967 9 SP MM AGNES:DINAH 1967-02-01 00:00:00 TS -35.0557 162.104 main 935 876 O________OP_O_ jtwc_sh SH161967 -35.0000 162.200 35 0 -35.0000 162.200 TC 35 -35.0230 162.316 1 -35.2000 161.700 TC 55 986 15 94
1967022S12165 1967 9 SP MM AGNES:DINAH 1967-02-01 03:00:00 TS -35.0806 163.012 main 876 794 P________PP_P_ SH161967 -35.0116 163.243 35 0 -35.0116 163.243 TC 35 -35.0598 163.301 1 -35.2394 162.261 TC 55 15 87
1967022S12165 1967 9 SP MM AGNES:DINAH 1967-02-01 06:00:00 TS -34.9736 163.973 main 785 740 O________OP_O_ jtwc_sh SH161967 -34.9000 164.300 35 0 -34.9000 164.300 TC 35 -34.9944 164.291 1 -35.1000 163.000 TC 55 15 82
1967022S12165 1967 9 SP MM AGNES:DINAH 1967-02-01 08:00:00 TS -34.8924 164.549 main 740 712 P________PO_P_ SH161967 -34.8056 164.838 35 0 -34.8056 164.838 TC 35 -34.9000 164.900 4 -35.0585 163.618 TC 53 14 78
1967022S12165 1967 9 SP MM AGNES:DINAH 1967-02-01 09:00:00 TS -34.8263 164.796 main 712 657 P________PP_P_ SH161967 -34.7439 165.075 35 0 -34.7439 165.075 TC 35 -34.7863 165.085 4 -35.0311 163.950 TC 52 12 66
1967022S12165 1967 9 SP MM AGNES:DINAH 1967-02-01 12:00:00 TS -34.5643 165.462 main 648 613 O________OP_O_ jtwc_sh SH161967 -34.5000 165.700 35 0 -34.5000 165.700 TC 35 -34.3572 165.546 4 -34.9000 164.900 TC 50 12 57
1967022S12165 1967 9 SP MM AGNES:DINAH 1967-02-01 15:00:00 TS -34.1879 165.976 main 605 554 P________PP_P_ SH161967 -34.0641 166.140 32 -1 -34.0641 166.140 TC 32 -33.9445 166.022 4 -34.6789 165.602 TC 47 12 57
1967022S12165 1967 9 SP MM AGNES:DINAH 1967-02-01 18:00:00 TS -33.9339 166.629 main 554 500 O________OP_O_ jtwc_sh SH161967 -33.8000 166.800 30 -1 -33.8000 166.800 TC 30 -33.7356 166.715 4 -34.4000 166.200 TC 45 13 75
1967022S12165 1967 9 SP MM AGNES:DINAH 1967-02-01 20:00:00 TS -33.9037 167.227 main 500 472 P________PO_P_ SH161967 -33.8496 167.532 30 -1 -33.8496 167.532 TC 30 -33.8000 167.400 4 -34.1157 166.443 TC 45 16 91
1967022S12165 1967 9 SP MM AGNES:DINAH 1967-02-01 21:00:00 TS -33.9487 167.618 main 463 330 P________PP_P_ SH161967 -33.9440 167.987 30 -1 -33.9440 167.987 TC 30 -33.9261 167.919 4 -33.9807 166.580 TC 45 25 105
1967022S12165 1967 9 SP MM AGNES:DINAH 1967-02-02 00:00:00 TS -34.3364 169.152 main 312 139 O________OP_O_ jtwc_sh SH161967 -34.5000 169.700 30 -1 -34.5000 169.700 TC 30 -34.5456 169.809 4 -33.8000 167.400 TC 45 33 110
1967022S12165 1967 9 SP MM AGNES:DINAH 1967-02-02 03:00:00 TS -35.0698 171.348 main 136 21 P________PP_P_ SH161967 -35.3810 172.020 27 -1 -35.3810 172.020 TC 27 -35.4423 172.002 4 -34.0748 169.350 TC 45 41 115
1967022S12165 1967 9 SP MM AGNES:DINAH 1967-02-02 06:00:00 TS -36.0799 173.683 main 21 0 O________OP_O_ jtwc_sh SH161967 -36.5000 174.400 25 -1 -36.5000 174.400 TC 25 -36.5197 174.233 4 -34.8000 171.700 TC 45 41 121
1967022S12165 1967 9 SP MM AGNES:DINAH 1967-02-02 08:00:00 TS -36.8318 174.978 main 11 0 P________PO_P_ SH161967 -37.2516 175.618 23 -1 -37.2516 175.618 TC 23 -37.3000 175.600 4 -35.5240 173.075 TC 41 38 128
1967022S12165 1967 9 SP MM AGNES:DINAH 1967-02-02 09:00:00 TS -37.2377 175.568 main 0 0 P________PP_P_ SH161967 -37.6488 176.156 22 -1 -37.6488 176.156 TC 22 -37.7024 176.217 4 -35.9510 173.742 TC 40 35 134
1967022S12165 1967 9 SP MM AGNES:DINAH 1967-02-02 12:00:00 TS -38.4577 177.090 main 0 0 O________OP_O_ jtwc_sh SH161967 -38.9000 177.600 20 -1 -38.9000 177.600 TC 20 -38.9519 177.816 4 -37.3000 175.600 TC 35 32 137
1967022S12165 1967 9 SP MM AGNES:DINAH 1967-02-02 15:00:00 TS -39.5650 178.370 main 54 54 P________PP_P_ SH161967 -40.1946 178.951 17 -1 -40.1946 178.951 TC 17 -40.2567 179.125 4 -38.4167 177.221 TC 35 28 139
1967022S12165 1967 9 SP MM AGNES:DINAH 1967-02-02 18:00:00 TS -40.5746 179.442 main 192 192 O________OP_O_ jtwc_sh SH161967 -41.5000 -179.700 15 -1 -41.5000 180.300 TC 15 -41.5982 -179.732 4 -39.6000 178.600 TC 35 22 143
1967022S12165 1967 9 SP MM AGNES:DINAH 1967-02-02 20:00:00 TS -41.0034 179.820 main 248 248 __________O_P_ SH161967 -1 TC -42.5000 -179.000 4 -40.5046 179.427 TC 35 10 145
1967022S12165 1967 9 SP MM AGNES:DINAH 1967-02-02 21:00:00 TS -40.9877 179.825 main 248 248 ____________P_ SH161967 -1 TC 4 -40.9877 179.825 TC 35 26 149
1967022S12165 1967 9 SP MM AGNES:DINAH 1967-02-03 00:00:00 TS -42.5000 181.000 main 427 ____________O_ -1 4 -42.5000 -179.000 TC 35 35 150

デジタル台風データ・検索

IBTrACS Databaseについて

本データベースは、米国NOAAが公開する1842年以降の世界の熱帯低気圧のベストトラックデータアーカイブInternational Best Track Archive for Climate Stewardship (IBTrACS)を、ウェブで閲覧しやすい形式に変換したものです。

最終更新日:2021-11-26